createdAt,value
2022-11-22T00:03:02.558Z,95749.59
2022-11-22T00:13:04.711Z,95756.22
2022-11-22T00:23:06.209Z,95748.69
2022-11-22T00:33:07.668Z,95739.03
2022-11-22T00:43:09.108Z,95717.09
2022-11-22T00:53:10.566Z,95714.50
2022-11-22T01:03:14.391Z,95726.47
2022-11-22T01:13:15.876Z,95724.88
2022-11-22T01:33:48.377Z,95722.53
2022-11-22T01:43:49.950Z,95723.00
2022-11-22T01:53:53.695Z,95710.91
2022-11-22T02:03:59.201Z,95697.53
2022-11-22T02:14:01.080Z,95678.44
2022-11-22T02:24:19.527Z,95692.63
2022-11-22T02:34:20.994Z,95680.56
2022-11-22T02:44:23.139Z,95694.97
2022-11-22T02:54:24.763Z,95720.22
2022-11-22T03:04:26.239Z,95727.97
2022-11-22T03:14:28.153Z,95729.81
2022-11-22T03:24:29.670Z,95729.53
2022-11-22T03:34:31.141Z,95723.56
2022-11-22T03:44:32.629Z,95730.34
2022-11-22T03:54:34.216Z,95736.63
2022-11-22T04:04:35.675Z,95751.38
2022-11-22T04:14:55.833Z,95741.91
2022-11-22T04:25:15.317Z,95755.25
2022-11-22T04:35:18.549Z,95767.00
2022-11-22T04:45:21.355Z,95773.28
2022-11-22T04:55:23.342Z,95765.41
2022-11-22T05:05:25.540Z,95764.09
2022-11-22T05:15:27.020Z,95757.59
2022-11-22T05:25:28.472Z,95768.91
2022-11-22T05:35:29.975Z,95782.78
2022-11-22T05:45:31.462Z,95785.16
2022-11-22T05:55:32.947Z,95788.63
2022-11-22T06:05:34.372Z,95796.75
2022-11-22T06:15:35.783Z,95806.19
2022-11-22T06:25:37.280Z,95798.34
2022-11-22T06:35:38.723Z,95820.84
2022-11-22T06:45:40.243Z,95820.84
2022-11-22T06:55:50.440Z,95834.16
2022-11-22T07:05:52.730Z,95855.56
2022-11-22T07:15:56.116Z,95869.34
2022-11-22T07:25:58.044Z,95883.81
2022-11-22T07:36:11.160Z,95899.22
2022-11-22T07:46:29.295Z,95917.72
2022-11-22T07:56:31.075Z,95910.88
2022-11-22T08:06:32.531Z,95913.91
2022-11-22T08:16:33.979Z,95911.81
2022-11-22T08:26:36.004Z,95924.00
2022-11-22T08:36:37.430Z,95937.59
2022-11-22T08:46:38.897Z,95937.25
2022-11-22T08:56:40.697Z,95947.38
2022-11-22T09:17:05.761Z,95954.81
2022-11-22T09:27:07.348Z,95944.31
2022-11-22T09:37:08.809Z,95961.88
2022-11-22T09:48:04.201Z,95970.13
2022-11-22T09:58:16.573Z,95983.63
2022-11-22T10:08:43.811Z,95996.03
2022-11-22T10:18:58.939Z,96010.72
2022-11-22T10:29:31.621Z,96034.56
2022-11-22T10:40:10.887Z,96036.47
2022-11-22T10:50:31.314Z,96032.97
2022-11-22T11:00:39.116Z,96031.72
2022-11-22T11:10:42.789Z,96017.50
2022-11-22T11:20:47.532Z,96020.19
2022-11-22T11:30:55.648Z,95992.88
2022-11-22T11:40:57.424Z,95971.34
2022-11-22T11:51:33.090Z,95972.13
2022-11-22T12:01:38.979Z,95970.78
2022-11-22T12:11:48.588Z,95954.75
2022-11-22T12:22:00.855Z,95955.81
2022-11-22T12:32:11.721Z,95956.94
2022-11-22T12:42:24.228Z,95955.19
2022-11-22T12:52:33.148Z,95955.78
2022-11-22T13:02:43.261Z,95956.94
2022-11-22T13:12:46.223Z,95970.28
2022-11-22T13:22:56.433Z,95953.00
2022-11-22T13:33:00.752Z,95950.56
2022-11-22T13:43:21.167Z,95948.13
2022-11-22T13:53:31.493Z,95954.56
2022-11-22T14:03:40.460Z,95957.88
2022-11-22T14:14:00.851Z,95965.16
2022-11-22T14:24:41.370Z,95971.69
2022-11-22T14:35:04.420Z,95981.75
2022-11-22T14:45:11.313Z,95985.06
2022-11-22T14:55:25.153Z,95994.69
2022-11-22T15:09:10.285Z,96000.03
2022-11-22T15:58:03.012Z,96064.72
2022-11-22T16:08:05.806Z,96063.75
2022-11-22T16:18:14.232Z,96067.59
2022-11-22T16:28:33.623Z,96069.72
2022-11-22T16:38:35.066Z,96064.25
2022-11-22T16:48:36.652Z,96072.47
2022-11-22T16:58:38.183Z,96077.81
2022-11-22T17:08:40.825Z,96082.97
2022-11-22T17:18:42.271Z,96088.00
2022-11-22T17:28:43.867Z,96086.25
2022-11-22T17:38:45.318Z,96091.78
2022-11-22T17:48:54.581Z,96118.16
2022-11-22T17:58:56.271Z,96123.22
2022-11-22T18:08:57.842Z,96127.47
2022-11-22T18:19:00.630Z,96125.66
2022-11-22T18:29:38.661Z,96120.50
2022-11-22T18:39:23.838Z,96139.75
2022-11-22T18:49:25.301Z,96148.44
2022-11-22T18:59:27.169Z,96148.78
2022-11-22T19:09:29.833Z,96154.81
2022-11-22T19:19:32.354Z,96153.81
2022-11-22T19:29:34.231Z,96163.59
2022-11-22T19:39:35.903Z,96168.34
2022-11-22T19:49:37.543Z,96176.81
2022-11-22T19:59:39.375Z,96179.19
2022-11-22T20:09:41.223Z,96178.13
2022-11-22T20:19:42.651Z,96177.72
2022-11-22T20:29:44.197Z,96178.47
2022-11-22T20:39:45.708Z,96188.75
2022-11-22T20:49:47.181Z,96201.72
2022-11-22T20:59:48.615Z,96213.59
2022-11-22T21:09:50.072Z,96216.41
2022-11-22T21:19:51.542Z,96211.34
2022-11-22T21:29:53.268Z,96217.94
2022-11-22T21:39:54.710Z,96211.22
2022-11-22T21:49:56.139Z,96217.34
2022-11-22T21:59:57.577Z,96232.06
2022-11-22T22:09:59.000Z,96229.44
2022-11-22T22:20:00.476Z,96236.84
2022-11-22T22:30:01.953Z,96252.84
2022-11-22T22:40:03.822Z,96269.06
2022-11-22T22:50:05.705Z,96263.81
2022-11-22T23:00:07.756Z,96266.19
2022-11-22T23:10:09.925Z,96271.47
2022-11-22T23:20:11.564Z,96281.28
2022-11-22T23:30:13.102Z,96283.34
2022-11-22T23:40:15.019Z,96287.03
2022-11-22T23:50:16.563Z,96294.09
